sensor_id;sensor_type;location;lat;lon;timestamp;P1;durP1;ratioP1;P2;durP2;ratioP2
45065;SDS011;30830;53.704;10.004;2022-09-09T00:04:13;32.30;;;23.80;;
45065;SDS011;30830;53.704;10.004;2022-09-09T00:09:47;30.83;;;23.30;;
45065;SDS011;30830;53.704;10.004;2022-09-09T00:15:28;32.35;;;21.13;;
45065;SDS011;30830;53.704;10.004;2022-09-09T00:18:07;28.23;;;21.55;;
45065;SDS011;30830;53.704;10.004;2022-09-09T00:20:48;26.13;;;20.13;;
45065;SDS011;30830;53.704;10.004;2022-09-09T00:23:38;26.35;;;21.15;;
45065;SDS011;30830;53.704;10.004;2022-09-09T00:26:09;25.40;;;20.83;;
45065;SDS011;30830;53.704;10.004;2022-09-09T00:28:54;28.48;;;21.65;;
45065;SDS011;30830;53.704;10.004;2022-09-09T00:31:39;25.60;;;20.73;;
45065;SDS011;30830;53.704;10.004;2022-09-09T00:36:37;28.55;;;21.38;;
45065;SDS011;30830;53.704;10.004;2022-09-09T00:39:04;26.75;;;21.02;;
45065;SDS011;30830;53.704;10.004;2022-09-09T00:44:25;32.83;;;23.35;;
45065;SDS011;30830;53.704;10.004;2022-09-09T00:47:16;31.63;;;22.55;;
45065;SDS011;30830;53.704;10.004;2022-09-09T00:53:19;31.80;;;22.65;;
45065;SDS011;30830;53.704;10.004;2022-09-09T00:56:22;30.33;;;21.48;;
45065;SDS011;30830;53.704;10.004;2022-09-09T00:59:19;30.27;;;21.58;;
45065;SDS011;30830;53.704;10.004;2022-09-09T01:01:39;39.72;;;24.00;;
45065;SDS011;30830;53.704;10.004;2022-09-09T01:04:09;30.05;;;21.60;;
45065;SDS011;30830;53.704;10.004;2022-09-09T01:06:41;28.23;;;19.88;;
45065;SDS011;30830;53.704;10.004;2022-09-09T01:12:03;32.35;;;22.33;;
45065;SDS011;30830;53.704;10.004;2022-09-09T01:14:47;32.70;;;23.88;;
45065;SDS011;30830;53.704;10.004;2022-09-09T01:17:19;32.93;;;22.00;;
45065;SDS011;30830;53.704;10.004;2022-09-09T01:19:49;32.72;;;22.55;;
45065;SDS011;30830;53.704;10.004;2022-09-09T01:22:29;56.40;;;24.80;;
45065;SDS011;30830;53.704;10.004;2022-09-09T01:25:11;32.25;;;22.65;;
45065;SDS011;30830;53.704;10.004;2022-09-09T01:28:03;32.95;;;22.40;;
45065;SDS011;30830;53.704;10.004;2022-09-09T01:30:34;32.45;;;22.75;;
45065;SDS011;30830;53.704;10.004;2022-09-09T01:33:03;30.08;;;22.13;;
45065;SDS011;30830;53.704;10.004;2022-09-09T01:35:32;35.30;;;24.10;;
45065;SDS011;30830;53.704;10.004;2022-09-09T01:38:10;37.40;;;24.10;;
45065;SDS011;30830;53.704;10.004;2022-09-09T01:40:36;34.00;;;23.30;;
45065;SDS011;30830;53.704;10.004;2022-09-09T01:43:01;40.42;;;25.10;;
45065;SDS011;30830;53.704;10.004;2022-09-09T01:45:28;35.85;;;24.65;;
45065;SDS011;30830;53.704;10.004;2022-09-09T01:47:54;33.88;;;23.35;;
45065;SDS011;30830;53.704;10.004;2022-09-09T01:50:21;35.13;;;23.98;;
45065;SDS011;30830;53.704;10.004;2022-09-09T01:52:48;40.28;;;25.63;;
45065;SDS011;30830;53.704;10.004;2022-09-09T01:55:17;33.35;;;23.75;;
45065;SDS011;30830;53.704;10.004;2022-09-09T01:57:52;33.70;;;24.67;;
45065;SDS011;30830;53.704;10.004;2022-09-09T02:00:32;39.17;;;25.70;;
45065;SDS011;30830;53.704;10.004;2022-09-09T02:03:08;40.28;;;26.60;;
45065;SDS011;30830;53.704;10.004;2022-09-09T02:05:45;39.83;;;26.48;;
45065;SDS011;30830;53.704;10.004;2022-09-09T02:11:14;37.50;;;25.55;;
45065;SDS011;30830;53.704;10.004;2022-09-09T02:13:48;37.50;;;25.38;;
45065;SDS011;30830;53.704;10.004;2022-09-09T02:16:31;36.80;;;25.52;;
45065;SDS011;30830;53.704;10.004;2022-09-09T02:19:19;36.38;;;24.33;;
45065;SDS011;30830;53.704;10.004;2022-09-09T02:21:51;33.70;;;23.40;;
45065;SDS011;30830;53.704;10.004;2022-09-09T02:24:20;44.35;;;26.80;;
45065;SDS011;30830;53.704;10.004;2022-09-09T02:26:47;38.25;;;24.60;;
45065;SDS011;30830;53.704;10.004;2022-09-09T02:29:28;38.22;;;24.60;;
45065;SDS011;30830;53.704;10.004;2022-09-09T02:32:06;37.53;;;24.33;;
45065;SDS011;30830;53.704;10.004;2022-09-09T02:34:48;35.88;;;23.95;;
45065;SDS011;30830;53.704;10.004;2022-09-09T02:37:22;38.53;;;25.42;;
45065;SDS011;30830;53.704;10.004;2022-09-09T02:39:50;39.60;;;24.80;;
45065;SDS011;30830;53.704;10.004;2022-09-09T02:42:15;33.30;;;23.17;;
45065;SDS011;30830;53.704;10.004;2022-09-09T02:44:41;34.95;;;23.20;;
45065;SDS011;30830;53.704;10.004;2022-09-09T02:47:10;30.70;;;21.27;;
45065;SDS011;30830;53.704;10.004;2022-09-09T02:52:15;31.63;;;21.83;;
45065;SDS011;30830;53.704;10.004;2022-09-09T02:54:45;27.73;;;20.40;;
45065;SDS011;30830;53.704;10.004;2022-09-09T02:57:12;32.22;;;21.75;;
45065;SDS011;30830;53.704;10.004;2022-09-09T02:59:42;33.03;;;22.45;;
45065;SDS011;30830;53.704;10.004;2022-09-09T03:02:09;28.50;;;20.60;;
45065;SDS011;30830;53.704;10.004;2022-09-09T03:04:36;32.25;;;21.73;;
45065;SDS011;30830;53.704;10.004;2022-09-09T03:07:02;37.35;;;22.52;;
45065;SDS011;30830;53.704;10.004;2022-09-09T03:09:29;36.38;;;22.73;;
45065;SDS011;30830;53.704;10.004;2022-09-09T03:11:55;32.95;;;21.13;;
45065;SDS011;30830;53.704;10.004;2022-09-09T03:14:21;30.27;;;19.85;;
45065;SDS011;30830;53.704;10.004;2022-09-09T03:16:49;32.28;;;20.38;;
45065;SDS011;30830;53.704;10.004;2022-09-09T03:19:19;28.92;;;19.67;;
45065;SDS011;30830;53.704;10.004;2022-09-09T03:21:46;32.20;;;20.80;;
45065;SDS011;30830;53.704;10.004;2022-09-09T03:24:12;29.60;;;19.58;;
45065;SDS011;30830;53.704;10.004;2022-09-09T03:26:39;30.15;;;20.98;;
45065;SDS011;30830;53.704;10.004;2022-09-09T03:29:05;29.00;;;19.42;;
45065;SDS011;30830;53.704;10.004;2022-09-09T03:31:32;29.23;;;18.92;;
45065;SDS011;30830;53.704;10.004;2022-09-09T03:33:59;25.27;;;18.05;;
45065;SDS011;30830;53.704;10.004;2022-09-09T03:36:25;24.77;;;19.65;;
45065;SDS011;30830;53.704;10.004;2022-09-09T03:38:51;23.77;;;18.70;;
45065;SDS011;30830;53.704;10.004;2022-09-09T03:41:19;27.10;;;19.63;;
45065;SDS011;30830;53.704;10.004;2022-09-09T03:43:44;38.33;;;20.48;;
45065;SDS011;30830;53.704;10.004;2022-09-09T03:46:10;27.77;;;18.80;;
45065;SDS011;30830;53.704;10.004;2022-09-09T03:48:35;25.95;;;20.08;;
45065;SDS011;30830;53.704;10.004;2022-09-09T03:51:01;25.88;;;19.02;;
45065;SDS011;30830;53.704;10.004;2022-09-09T03:53:28;29.88;;;20.35;;
45065;SDS011;30830;53.704;10.004;2022-09-09T03:55:55;29.52;;;20.15;;
45065;SDS011;30830;53.704;10.004;2022-09-09T03:58:24;28.88;;;19.90;;
45065;SDS011;30830;53.704;10.004;2022-09-09T04:03:20;30.67;;;21.20;;
45065;SDS011;30830;53.704;10.004;2022-09-09T04:05:48;35.25;;;22.10;;
45065;SDS011;30830;53.704;10.004;2022-09-09T04:08:14;28.23;;;20.55;;
45065;SDS011;30830;53.704;10.004;2022-09-09T04:10:39;27.38;;;19.80;;
45065;SDS011;30830;53.704;10.004;2022-09-09T04:13:06;28.42;;;20.25;;
45065;SDS011;30830;53.704;10.004;2022-09-09T04:15:32;28.38;;;19.23;;
45065;SDS011;30830;53.704;10.004;2022-09-09T04:18:00;28.55;;;19.45;;
45065;SDS011;30830;53.704;10.004;2022-09-09T04:20:26;28.15;;;20.60;;
45065;SDS011;30830;53.704;10.004;2022-09-09T04:22:51;30.08;;;21.15;;
45065;SDS011;30830;53.704;10.004;2022-09-09T04:25:17;28.73;;;21.10;;
45065;SDS011;30830;53.704;10.004;2022-09-09T04:27:42;28.38;;;20.73;;
45065;SDS011;30830;53.704;10.004;2022-09-09T04:30:09;29.88;;;21.33;;
45065;SDS011;30830;53.704;10.004;2022-09-09T04:32:35;31.70;;;20.58;;
45065;SDS011;30830;53.704;10.004;2022-09-09T04:35:02;28.38;;;21.08;;
45065;SDS011;30830;53.704;10.004;2022-09-09T04:37:28;28.02;;;20.70;;
45065;SDS011;30830;53.704;10.004;2022-09-09T04:39:53;28.25;;;20.73;;
45065;SDS011;30830;53.704;10.004;2022-09-09T04:42:19;29.77;;;21.27;;
45065;SDS011;30830;53.704;10.004;2022-09-09T04:44:44;26.25;;;19.58;;
45065;SDS011;30830;53.704;10.004;2022-09-09T04:47:10;27.30;;;21.38;;
45065;SDS011;30830;53.704;10.004;2022-09-09T04:49:36;22.13;;;17.73;;
45065;SDS011;30830;53.704;10.004;2022-09-09T04:52:02;31.08;;;21.10;;
45065;SDS011;30830;53.704;10.004;2022-09-09T04:54:28;24.98;;;19.15;;
45065;SDS011;30830;53.704;10.004;2022-09-09T04:56:54;29.73;;;21.17;;
45065;SDS011;30830;53.704;10.004;2022-09-09T04:59:20;29.17;;;20.40;;
45065;SDS011;30830;53.704;10.004;2022-09-09T05:01:46;26.15;;;19.15;;
45065;SDS011;30830;53.704;10.004;2022-09-09T05:04:13;26.23;;;19.17;;
45065;SDS011;30830;53.704;10.004;2022-09-09T05:06:40;27.05;;;19.83;;
45065;SDS011;30830;53.704;10.004;2022-09-09T05:09:07;22.10;;;17.25;;
45065;SDS011;30830;53.704;10.004;2022-09-09T05:11:33;25.40;;;18.77;;
45065;SDS011;30830;53.704;10.004;2022-09-09T05:14:01;26.77;;;18.88;;
45065;SDS011;30830;53.704;10.004;2022-09-09T05:16:27;26.40;;;18.50;;
45065;SDS011;30830;53.704;10.004;2022-09-09T05:18:53;22.58;;;17.60;;
45065;SDS011;30830;53.704;10.004;2022-09-09T05:21:19;22.67;;;17.25;;
45065;SDS011;30830;53.704;10.004;2022-09-09T05:23:48;21.17;;;16.85;;
45065;SDS011;30830;53.704;10.004;2022-09-09T05:26:15;19.35;;;15.98;;
45065;SDS011;30830;53.704;10.004;2022-09-09T05:28:42;19.88;;;16.17;;
45065;SDS011;30830;53.704;10.004;2022-09-09T05:31:08;20.25;;;15.95;;
45065;SDS011;30830;53.704;10.004;2022-09-09T05:33:37;20.50;;;15.48;;
45065;SDS011;30830;53.704;10.004;2022-09-09T05:36:07;18.02;;;15.32;;
45065;SDS011;30830;53.704;10.004;2022-09-09T05:38:35;20.00;;;15.35;;
45065;SDS011;30830;53.704;10.004;2022-09-09T05:41:01;17.55;;;14.50;;
45065;SDS011;30830;53.704;10.004;2022-09-09T05:43:27;19.35;;;15.02;;
45065;SDS011;30830;53.704;10.004;2022-09-09T05:46:04;16.73;;;13.70;;
45065;SDS011;30830;53.704;10.004;2022-09-09T05:48:35;14.75;;;12.32;;
45065;SDS011;30830;53.704;10.004;2022-09-09T05:51:02;16.83;;;13.38;;
45065;SDS011;30830;53.704;10.004;2022-09-09T05:53:30;16.85;;;13.73;;
45065;SDS011;30830;53.704;10.004;2022-09-09T05:58:29;13.18;;;11.77;;
45065;SDS011;30830;53.704;10.004;2022-09-09T06:01:05;14.18;;;10.95;;
45065;SDS011;30830;53.704;10.004;2022-09-09T06:03:35;14.05;;;12.27;;
45065;SDS011;30830;53.704;10.004;2022-09-09T06:06:06;14.82;;;11.93;;
45065;SDS011;30830;53.704;10.004;2022-09-09T06:08:34;16.02;;;12.68;;
45065;SDS011;30830;53.704;10.004;2022-09-09T06:11:05;14.60;;;11.95;;
45065;SDS011;30830;53.704;10.004;2022-09-09T06:13:33;12.73;;;10.70;;
45065;SDS011;30830;53.704;10.004;2022-09-09T06:15:59;12.38;;;10.98;;
45065;SDS011;30830;53.704;10.004;2022-09-09T06:18:27;13.15;;;10.85;;
45065;SDS011;30830;53.704;10.004;2022-09-09T06:20:55;16.00;;;11.50;;
45065;SDS011;30830;53.704;10.004;2022-09-09T06:23:31;10.88;;;9.77;;
45065;SDS011;30830;53.704;10.004;2022-09-09T06:26:01;11.60;;;10.10;;
45065;SDS011;30830;53.704;10.004;2022-09-09T06:28:31;15.23;;;10.13;;
45065;SDS011;30830;53.704;10.004;2022-09-09T06:30:58;13.40;;;10.95;;
45065;SDS011;30830;53.704;10.004;2022-09-09T06:33:25;13.38;;;11.10;;
45065;SDS011;30830;53.704;10.004;2022-09-09T06:35:52;12.93;;;10.07;;
45065;SDS011;30830;53.704;10.004;2022-09-09T06:38:19;13.02;;;10.18;;
45065;SDS011;30830;53.704;10.004;2022-09-09T06:40:53;11.80;;;9.95;;
45065;SDS011;30830;53.704;10.004;2022-09-09T06:43:20;11.25;;;9.63;;
45065;SDS011;30830;53.704;10.004;2022-09-09T06:45:59;12.80;;;10.27;;
45065;SDS011;30830;53.704;10.004;2022-09-09T06:48:27;11.30;;;9.80;;
45065;SDS011;30830;53.704;10.004;2022-09-09T06:51:09;11.93;;;10.13;;
45065;SDS011;30830;53.704;10.004;2022-09-09T06:53:36;13.35;;;10.35;;
45065;SDS011;30830;53.704;10.004;2022-09-09T06:56:13;10.93;;;9.25;;
45065;SDS011;30830;53.704;10.004;2022-09-09T06:58:46;10.82;;;9.73;;
45065;SDS011;30830;53.704;10.004;2022-09-09T07:01:15;15.00;;;11.05;;
45065;SDS011;30830;53.704;10.004;2022-09-09T07:03:42;11.15;;;9.00;;
45065;SDS011;30830;53.704;10.004;2022-09-09T07:06:18;14.32;;;10.85;;
45065;SDS011;30830;53.704;10.004;2022-09-09T07:08:49;13.30;;;10.05;;
45065;SDS011;30830;53.704;10.004;2022-09-09T07:11:20;11.60;;;10.40;;
45065;SDS011;30830;53.704;10.004;2022-09-09T07:13:49;13.70;;;10.98;;
45065;SDS011;30830;53.704;10.004;2022-09-09T07:16:18;10.95;;;9.75;;
45065;SDS011;30830;53.704;10.004;2022-09-09T07:18:45;10.90;;;9.38;;
45065;SDS011;30830;53.704;10.004;2022-09-09T07:21:12;10.48;;;8.00;;
45065;SDS011;30830;53.704;10.004;2022-09-09T07:23:39;10.35;;;9.25;;
45065;SDS011;30830;53.704;10.004;2022-09-09T07:26:09;10.65;;;8.77;;
45065;SDS011;30830;53.704;10.004;2022-09-09T07:28:36;10.27;;;7.70;;
45065;SDS011;30830;53.704;10.004;2022-09-09T07:31:02;9.80;;;8.73;;
45065;SDS011;30830;53.704;10.004;2022-09-09T07:33:29;9.68;;;8.68;;
45065;SDS011;30830;53.704;10.004;2022-09-09T07:36:07;10.25;;;8.52;;
45065;SDS011;30830;53.704;10.004;2022-09-09T07:38:41;11.30;;;8.05;;
45065;SDS011;30830;53.704;10.004;2022-09-09T07:41:10;9.40;;;7.28;;
45065;SDS011;30830;53.704;10.004;2022-09-09T07:43:41;9.05;;;6.72;;
45065;SDS011;30830;53.704;10.004;2022-09-09T07:46:08;7.03;;;6.32;;
45065;SDS011;30830;53.704;10.004;2022-09-09T07:48:35;8.52;;;6.53;;
45065;SDS011;30830;53.704;10.004;2022-09-09T07:51:08;8.90;;;5.93;;
45065;SDS011;30830;53.704;10.004;2022-09-09T07:53:36;7.38;;;5.75;;
45065;SDS011;30830;53.704;10.004;2022-09-09T07:56:07;7.25;;;5.68;;
45065;SDS011;30830;53.704;10.004;2022-09-09T07:58:37;7.00;;;4.72;;
45065;SDS011;30830;53.704;10.004;2022-09-09T08:01:08;5.55;;;4.82;;
45065;SDS011;30830;53.704;10.004;2022-09-09T08:03:36;6.78;;;4.78;;
45065;SDS011;30830;53.704;10.004;2022-09-09T08:06:03;4.72;;;4.07;;
45065;SDS011;30830;53.704;10.004;2022-09-09T08:08:32;5.90;;;4.53;;
45065;SDS011;30830;53.704;10.004;2022-09-09T08:11:02;7.38;;;4.90;;
45065;SDS011;30830;53.704;10.004;2022-09-09T08:13:36;5.93;;;4.13;;
45065;SDS011;30830;53.704;10.004;2022-09-09T08:16:04;6.10;;;4.63;;
45065;SDS011;30830;53.704;10.004;2022-09-09T08:18:40;6.80;;;4.03;;
45065;SDS011;30830;53.704;10.004;2022-09-09T08:21:14;5.47;;;3.30;;
45065;SDS011;30830;53.704;10.004;2022-09-09T08:26:11;6.43;;;3.63;;
45065;SDS011;30830;53.704;10.004;2022-09-09T08:28:37;4.78;;;3.55;;
45065;SDS011;30830;53.704;10.004;2022-09-09T08:31:12;5.38;;;3.30;;
45065;SDS011;30830;53.704;10.004;2022-09-09T08:33:39;5.57;;;3.50;;
45065;SDS011;30830;53.704;10.004;2022-09-09T08:36:08;3.42;;;3.13;;
45065;SDS011;30830;53.704;10.004;2022-09-09T08:38:35;6.00;;;3.85;;
45065;SDS011;30830;53.704;10.004;2022-09-09T08:41:06;4.28;;;3.83;;
45065;SDS011;30830;53.704;10.004;2022-09-09T08:43:51;4.45;;;4.05;;
45065;SDS011;30830;53.704;10.004;2022-09-09T08:49:17;4.57;;;3.50;;
45065;SDS011;30830;53.704;10.004;2022-09-09T08:52:03;5.75;;;2.85;;
45065;SDS011;30830;53.704;10.004;2022-09-09T08:54:37;4.00;;;3.08;;
45065;SDS011;30830;53.704;10.004;2022-09-09T08:57:03;4.32;;;3.33;;
45065;SDS011;30830;53.704;10.004;2022-09-09T08:59:38;3.83;;;3.08;;
45065;SDS011;30830;53.704;10.004;2022-09-09T09:02:47;4.40;;;3.03;;
45065;SDS011;30830;53.704;10.004;2022-09-09T09:13:19;4.10;;;2.58;;
45065;SDS011;30830;53.704;10.004;2022-09-09T09:15:53;3.88;;;3.05;;
45065;SDS011;30830;53.704;10.004;2022-09-09T09:18:23;3.22;;;2.20;;
45065;SDS011;30830;53.704;10.004;2022-09-09T09:23:42;3.58;;;2.20;;
45065;SDS011;30830;53.704;10.004;2022-09-09T09:26:23;6.97;;;2.20;;
45065;SDS011;30830;53.704;10.004;2022-09-09T09:28:55;3.28;;;1.80;;
45065;SDS011;30830;53.704;10.004;2022-09-09T09:31:24;3.67;;;1.98;;
45065;SDS011;30830;53.704;10.004;2022-09-09T09:33:51;3.70;;;1.70;;
45065;SDS011;30830;53.704;10.004;2022-09-09T09:36:23;2.78;;;2.25;;
45065;SDS011;30830;53.704;10.004;2022-09-09T09:38:58;4.70;;;1.90;;
45065;SDS011;30830;53.704;10.004;2022-09-09T09:41:28;1.92;;;1.65;;
45065;SDS011;30830;53.704;10.004;2022-09-09T09:43:55;3.60;;;1.40;;
45065;SDS011;30830;53.704;10.004;2022-09-09T09:46:21;3.72;;;1.77;;
45065;SDS011;30830;53.704;10.004;2022-09-09T09:49:01;2.80;;;1.50;;
45065;SDS011;30830;53.704;10.004;2022-09-09T09:51:30;3.50;;;1.33;;
45065;SDS011;30830;53.704;10.004;2022-09-09T09:56:38;4.38;;;1.95;;
45065;SDS011;30830;53.704;10.004;2022-09-09T09:59:05;2.53;;;1.50;;
45065;SDS011;30830;53.704;10.004;2022-09-09T10:01:32;2.03;;;1.83;;
45065;SDS011;30830;53.704;10.004;2022-09-09T10:04:00;3.90;;;1.45;;
45065;SDS011;30830;53.704;10.004;2022-09-09T10:06:31;3.38;;;1.27;;
45065;SDS011;30830;53.704;10.004;2022-09-09T10:08:58;3.35;;;1.08;;
45065;SDS011;30830;53.704;10.004;2022-09-09T10:11:38;3.65;;;1.27;;
45065;SDS011;30830;53.704;10.004;2022-09-09T10:14:15;2.45;;;0.82;;
45065;SDS011;30830;53.704;10.004;2022-09-09T10:19:34;1.85;;;0.98;;
45065;SDS011;30830;53.704;10.004;2022-09-09T10:25:33;3.00;;;1.58;;
45065;SDS011;30830;53.704;10.004;2022-09-09T10:30:58;4.50;;;2.00;;
45065;SDS011;30830;53.704;10.004;2022-09-09T10:33:33;3.63;;;2.78;;
45065;SDS011;30830;53.704;10.004;2022-09-09T10:36:42;2.72;;;2.40;;
45065;SDS011;30830;53.704;10.004;2022-09-09T10:39:28;3.72;;;2.10;;
45065;SDS011;30830;53.704;10.004;2022-09-09T10:42:05;5.05;;;2.25;;
45065;SDS011;30830;53.704;10.004;2022-09-09T10:47:42;3.75;;;2.10;;
45065;SDS011;30830;53.704;10.004;2022-09-09T10:52:46;3.90;;;1.60;;
45065;SDS011;30830;53.704;10.004;2022-09-09T10:55:20;2.63;;;1.30;;
45065;SDS011;30830;53.704;10.004;2022-09-09T10:57:51;1.58;;;1.45;;
45065;SDS011;30830;53.704;10.004;2022-09-09T11:00:24;1.95;;;1.00;;
45065;SDS011;30830;53.704;10.004;2022-09-09T11:03:06;2.33;;;1.45;;
45065;SDS011;30830;53.704;10.004;2022-09-09T11:05:43;3.30;;;1.30;;
45065;SDS011;30830;53.704;10.004;2022-09-09T11:08:18;2.75;;;0.85;;
45065;SDS011;30830;53.704;10.004;2022-09-09T11:13:26;2.55;;;1.05;;
45065;SDS011;30830;53.704;10.004;2022-09-09T11:18:44;2.08;;;1.33;;
45065;SDS011;30830;53.704;10.004;2022-09-09T11:21:15;7.00;;;1.42;;
45065;SDS011;30830;53.704;10.004;2022-09-09T11:23:52;1.65;;;1.50;;
45065;SDS011;30830;53.704;10.004;2022-09-09T11:26:37;2.22;;;1.35;;
45065;SDS011;30830;53.704;10.004;2022-09-09T11:34:39;3.83;;;1.50;;
45065;SDS011;30830;53.704;10.004;2022-09-09T11:42:35;1.63;;;1.17;;
45065;SDS011;30830;53.704;10.004;2022-09-09T11:47:52;2.20;;;1.10;;
45065;SDS011;30830;53.704;10.004;2022-09-09T11:52:50;2.28;;;1.23;;
45065;SDS011;30830;53.704;10.004;2022-09-09T11:57:58;2.53;;;1.35;;
45065;SDS011;30830;53.704;10.004;2022-09-09T12:00:50;3.40;;;1.65;;
45065;SDS011;30830;53.704;10.004;2022-09-09T12:03:33;1.90;;;1.02;;
45065;SDS011;30830;53.704;10.004;2022-09-09T12:06:09;2.45;;;1.10;;
45065;SDS011;30830;53.704;10.004;2022-09-09T12:08:42;1.45;;;1.00;;
45065;SDS011;30830;53.704;10.004;2022-09-09T12:11:10;1.17;;;1.08;;
45065;SDS011;30830;53.704;10.004;2022-09-09T12:13:36;1.23;;;1.05;;
45065;SDS011;30830;53.704;10.004;2022-09-09T12:16:02;4.60;;;1.02;;
45065;SDS011;30830;53.704;10.004;2022-09-09T12:18:37;2.17;;;1.08;;
45065;SDS011;30830;53.704;10.004;2022-09-09T12:21:15;1.17;;;1.08;;
45065;SDS011;30830;53.704;10.004;2022-09-09T12:23:58;1.02;;;0.90;;
45065;SDS011;30830;53.704;10.004;2022-09-09T12:34:14;2.35;;;1.30;;
45065;SDS011;30830;53.704;10.004;2022-09-09T12:36:59;2.57;;;1.00;;
45065;SDS011;30830;53.704;10.004;2022-09-09T12:39:37;4.05;;;1.52;;
45065;SDS011;30830;53.704;10.004;2022-09-09T12:42:17;2.30;;;1.52;;
45065;SDS011;30830;53.704;10.004;2022-09-09T12:44:53;1.27;;;1.02;;
45065;SDS011;30830;53.704;10.004;2022-09-09T12:50:02;2.38;;;1.05;;
45065;SDS011;30830;53.704;10.004;2022-09-09T12:52:29;1.52;;;1.25;;
45065;SDS011;30830;53.704;10.004;2022-09-09T12:55:00;3.28;;;1.40;;
45065;SDS011;30830;53.704;10.004;2022-09-09T12:57:32;2.38;;;1.25;;
45065;SDS011;30830;53.704;10.004;2022-09-09T13:00:34;2.78;;;1.75;;
45065;SDS011;30830;53.704;10.004;2022-09-09T13:02:54;2.50;;;1.10;;
45065;SDS011;30830;53.704;10.004;2022-09-09T13:05:22;1.30;;;1.20;;
45065;SDS011;30830;53.704;10.004;2022-09-09T13:07:50;1.33;;;1.23;;
45065;SDS011;30830;53.704;10.004;2022-09-09T13:10:21;2.65;;;1.20;;
45065;SDS011;30830;53.704;10.004;2022-09-09T13:12:51;2.58;;;1.17;;
45065;SDS011;30830;53.704;10.004;2022-09-09T13:15:21;2.10;;;1.33;;
45065;SDS011;30830;53.704;10.004;2022-09-09T13:17:50;3.80;;;1.10;;
45065;SDS011;30830;53.704;10.004;2022-09-09T13:20:18;1.27;;;1.17;;
45065;SDS011;30830;53.704;10.004;2022-09-09T13:22:46;3.17;;;1.38;;
45065;SDS011;30830;53.704;10.004;2022-09-09T13:25:25;2.25;;;1.25;;
45065;SDS011;30830;53.704;10.004;2022-09-09T13:33:00;2.63;;;1.45;;
45065;SDS011;30830;53.704;10.004;2022-09-09T13:35:30;4.55;;;1.50;;
45065;SDS011;30830;53.704;10.004;2022-09-09T13:37:57;2.38;;;1.70;;
45065;SDS011;30830;53.704;10.004;2022-09-09T13:40:24;3.97;;;1.88;;
45065;SDS011;30830;53.704;10.004;2022-09-09T13:42:51;4.07;;;2.20;;
45065;SDS011;30830;53.704;10.004;2022-09-09T13:45:21;4.75;;;2.55;;
45065;SDS011;30830;53.704;10.004;2022-09-09T13:47:49;3.15;;;2.63;;
45065;SDS011;30830;53.704;10.004;2022-09-09T13:50:27;4.85;;;2.60;;
45065;SDS011;30830;53.704;10.004;2022-09-09T13:52:55;5.95;;;2.50;;
45065;SDS011;30830;53.704;10.004;2022-09-09T13:55:23;4.70;;;2.80;;
45065;SDS011;30830;53.704;10.004;2022-09-09T13:57:54;3.65;;;2.60;;
45065;SDS011;30830;53.704;10.004;2022-09-09T14:00:21;5.45;;;2.20;;
45065;SDS011;30830;53.704;10.004;2022-09-09T14:02:49;4.03;;;2.47;;
45065;SDS011;30830;53.704;10.004;2022-09-09T14:05:15;2.28;;;2.00;;
45065;SDS011;30830;53.704;10.004;2022-09-09T14:07:42;5.97;;;2.42;;
45065;SDS011;30830;53.704;10.004;2022-09-09T14:10:09;5.10;;;3.38;;
45065;SDS011;30830;53.704;10.004;2022-09-09T14:12:36;3.97;;;2.40;;
45065;SDS011;30830;53.704;10.004;2022-09-09T14:15:02;4.90;;;2.35;;
45065;SDS011;30830;53.704;10.004;2022-09-09T14:17:29;3.13;;;2.67;;
45065;SDS011;30830;53.704;10.004;2022-09-09T14:19:56;4.43;;;3.17;;
45065;SDS011;30830;53.704;10.004;2022-09-09T14:22:22;4.68;;;3.00;;
45065;SDS011;30830;53.704;10.004;2022-09-09T14:24:48;3.53;;;2.30;;
45065;SDS011;30830;53.704;10.004;2022-09-09T14:27:14;3.70;;;2.45;;
45065;SDS011;30830;53.704;10.004;2022-09-09T14:29:40;5.97;;;2.92;;
45065;SDS011;30830;53.704;10.004;2022-09-09T14:32:07;4.90;;;2.80;;
45065;SDS011;30830;53.704;10.004;2022-09-09T14:34:32;2.85;;;2.60;;
45065;SDS011;30830;53.704;10.004;2022-09-09T14:36:58;3.25;;;1.92;;
45065;SDS011;30830;53.704;10.004;2022-09-09T14:39:24;3.25;;;2.42;;
45065;SDS011;30830;53.704;10.004;2022-09-09T14:41:49;5.80;;;3.42;;
45065;SDS011;30830;53.704;10.004;2022-09-09T14:44:15;3.42;;;3.10;;
45065;SDS011;30830;53.704;10.004;2022-09-09T14:46:43;3.92;;;2.83;;
45065;SDS011;30830;53.704;10.004;2022-09-09T14:49:09;4.00;;;3.33;;
45065;SDS011;30830;53.704;10.004;2022-09-09T14:51:35;4.53;;;4.05;;
45065;SDS011;30830;53.704;10.004;2022-09-09T14:54:01;2.80;;;2.60;;
45065;SDS011;30830;53.704;10.004;2022-09-09T14:56:28;3.53;;;2.50;;
45065;SDS011;30830;53.704;10.004;2022-09-09T14:58:57;3.67;;;2.58;;
45065;SDS011;30830;53.704;10.004;2022-09-09T15:01:25;5.13;;;2.78;;
45065;SDS011;30830;53.704;10.004;2022-09-09T15:03:55;3.28;;;2.80;;
45065;SDS011;30830;53.704;10.004;2022-09-09T15:06:27;2.95;;;2.38;;
45065;SDS011;30830;53.704;10.004;2022-09-09T15:08:54;3.28;;;2.75;;
45065;SDS011;30830;53.704;10.004;2022-09-09T15:11:25;3.35;;;2.80;;
45065;SDS011;30830;53.704;10.004;2022-09-09T15:13:55;6.03;;;3.50;;
45065;SDS011;30830;53.704;10.004;2022-09-09T15:16:23;4.57;;;3.00;;
45065;SDS011;30830;53.704;10.004;2022-09-09T15:18:52;3.85;;;3.55;;
45065;SDS011;30830;53.704;10.004;2022-09-09T15:21:19;3.05;;;2.75;;
45065;SDS011;30830;53.704;10.004;2022-09-09T15:23:47;3.13;;;2.88;;
45065;SDS011;30830;53.704;10.004;2022-09-09T15:26:14;3.35;;;2.80;;
45065;SDS011;30830;53.704;10.004;2022-09-09T15:28:40;3.17;;;2.88;;
45065;SDS011;30830;53.704;10.004;2022-09-09T15:31:13;3.17;;;2.88;;
45065;SDS011;30830;53.704;10.004;2022-09-09T15:33:46;3.30;;;3.00;;
45065;SDS011;30830;53.704;10.004;2022-09-09T15:36:20;3.90;;;2.95;;
45065;SDS011;30830;53.704;10.004;2022-09-09T15:38:48;4.32;;;2.90;;
45065;SDS011;30830;53.704;10.004;2022-09-09T15:41:15;3.38;;;2.80;;
45065;SDS011;30830;53.704;10.004;2022-09-09T15:43:43;3.80;;;2.42;;
45065;SDS011;30830;53.704;10.004;2022-09-09T15:46:35;3.38;;;2.40;;
45065;SDS011;30830;53.704;10.004;2022-09-09T15:49:03;3.35;;;1.80;;
45065;SDS011;30830;53.704;10.004;2022-09-09T15:51:29;1.88;;;1.75;;
45065;SDS011;30830;53.704;10.004;2022-09-09T15:53:55;2.40;;;1.65;;
45065;SDS011;30830;53.704;10.004;2022-09-09T15:56:22;1.77;;;1.63;;
45065;SDS011;30830;53.704;10.004;2022-09-09T15:58:53;1.70;;;1.17;;
45065;SDS011;30830;53.704;10.004;2022-09-09T16:01:20;4.78;;;1.80;;
45065;SDS011;30830;53.704;10.004;2022-09-09T16:03:46;4.05;;;1.83;;
45065;SDS011;30830;53.704;10.004;2022-09-09T16:06:15;2.83;;;1.58;;
45065;SDS011;30830;53.704;10.004;2022-09-09T16:08:46;3.22;;;1.40;;
45065;SDS011;30830;53.704;10.004;2022-09-09T16:11:17;2.42;;;1.50;;
45065;SDS011;30830;53.704;10.004;2022-09-09T16:13:45;3.15;;;1.30;;
45065;SDS011;30830;53.704;10.004;2022-09-09T16:16:13;2.13;;;1.35;;
45065;SDS011;30830;53.704;10.004;2022-09-09T16:18:41;1.40;;;1.30;;
45065;SDS011;30830;53.704;10.004;2022-09-09T16:21:21;1.50;;;1.40;;
45065;SDS011;30830;53.704;10.004;2022-09-09T16:23:54;2.17;;;1.58;;
45065;SDS011;30830;53.704;10.004;2022-09-09T16:26:20;3.65;;;1.40;;
45065;SDS011;30830;53.704;10.004;2022-09-09T16:28:46;5.72;;;1.13;;